createdAt,value
2023-01-03T05:02:52.437Z,6.40
2023-01-03T05:05:24.069Z,6.50
2023-01-03T05:07:55.708Z,6.50
2023-01-03T05:10:27.363Z,6.60
2023-01-03T05:12:59.075Z,6.70
2023-01-03T05:15:31.421Z,6.70
2023-01-03T05:18:04.770Z,6.70
2023-01-03T05:20:36.461Z,6.80
2023-01-03T05:23:09.791Z,6.90
2023-01-03T05:25:41.450Z,6.90
2023-01-03T05:28:17.273Z,6.90
2023-01-03T05:30:49.281Z,7.00
2023-01-03T05:33:22.294Z,7.00
2023-01-03T05:35:53.956Z,7.00
2023-01-03T05:38:25.619Z,7.10
2023-01-03T05:40:57.230Z,7.10
2023-01-03T05:43:28.898Z,7.10
2023-01-03T05:46:00.556Z,7.10
2023-01-03T05:48:33.624Z,7.10
2023-01-03T05:51:05.450Z,7.10
2023-01-03T05:53:37.136Z,7.10
2023-01-03T05:56:08.900Z,7.10
2023-01-03T05:58:42.426Z,7.00
2023-01-03T06:01:14.475Z,7.00
2023-01-03T06:03:47.585Z,6.90
2023-01-03T06:06:19.320Z,6.90
2023-01-03T06:08:50.977Z,6.80
2023-01-03T06:11:22.661Z,6.80
2023-01-03T06:13:54.489Z,6.80
2023-01-03T06:16:26.179Z,6.80
2023-01-03T06:18:59.346Z,6.70
2023-01-03T06:21:31.008Z,6.70
2023-01-03T06:24:02.773Z,6.70
2023-01-03T06:26:34.466Z,6.70
2023-01-03T06:29:06.334Z,6.70
2023-01-03T06:31:37.973Z,6.70
2023-01-03T06:34:10.954Z,6.70
2023-01-03T06:36:42.611Z,6.70
2023-01-03T06:39:14.317Z,6.60
2023-01-03T06:41:45.992Z,6.60
2023-01-03T06:44:17.710Z,6.70
2023-01-03T06:46:49.428Z,6.70
2023-01-03T06:49:22.434Z,6.70
2023-01-03T06:51:54.083Z,6.80
2023-01-03T06:54:26.497Z,6.80
2023-01-03T06:56:58.168Z,6.90
2023-01-03T06:59:29.872Z,7.00
2023-01-03T07:02:01.730Z,7.00
2023-01-03T07:04:34.947Z,7.00
2023-01-03T07:07:06.640Z,7.10
2023-01-03T07:09:38.300Z,7.10
2023-01-03T07:12:09.955Z,7.20
2023-01-03T07:14:41.591Z,7.20
2023-01-03T07:17:13.266Z,7.30
2023-01-03T07:19:46.267Z,7.30
2023-01-03T07:22:17.949Z,7.30
2023-01-03T07:24:49.893Z,7.40
2023-01-03T07:27:21.870Z,7.40
2023-01-03T07:29:53.539Z,7.40
2023-01-03T07:32:25.197Z,7.40
2023-01-03T07:34:58.192Z,7.40
2023-01-03T07:37:29.870Z,7.40
2023-01-03T07:40:01.518Z,7.50
2023-01-03T07:42:33.212Z,7.50
2023-01-03T07:45:06.268Z,7.50
2023-01-03T07:47:37.940Z,7.50
2023-01-03T07:50:10.979Z,7.50
2023-01-03T07:52:42.619Z,7.50
2023-01-03T07:55:14.277Z,7.50
2023-01-03T07:57:46.331Z,7.50
2023-01-03T08:00:18.442Z,7.50
2023-01-03T08:02:52.459Z,7.50
2023-01-03T08:05:25.803Z,7.60
2023-01-03T08:07:57.525Z,7.60
2023-01-03T08:10:29.165Z,7.60
2023-01-03T08:13:00.827Z,7.60
2023-01-03T08:15:32.488Z,7.60
2023-01-03T08:18:04.273Z,7.60
2023-01-03T08:20:37.334Z,7.60
2023-01-03T08:23:09.166Z,7.60
2023-01-03T08:25:40.820Z,7.60
2023-01-03T08:28:12.498Z,7.60
2023-01-03T08:30:45.703Z,7.60
2023-01-03T08:33:18.534Z,7.60
2023-01-03T08:35:53.077Z,7.70
2023-01-03T08:38:27.179Z,7.70
2023-01-03T08:40:58.850Z,7.80
2023-01-03T08:43:30.880Z,7.80
2023-01-03T08:46:03.411Z,7.90
2023-01-03T08:48:35.084Z,7.90
2023-01-03T08:51:08.092Z,7.90
2023-01-03T08:53:40.187Z,7.90
2023-01-03T08:56:11.858Z,7.80
2023-01-03T08:58:43.512Z,7.80
2023-01-03T09:01:15.256Z,7.80
2023-01-03T09:03:47.249Z,7.80
2023-01-03T09:06:20.479Z,7.80
2023-01-03T09:08:52.111Z,7.80
2023-01-03T09:11:23.806Z,7.80
2023-01-03T09:13:55.525Z,7.90
2023-01-03T09:16:27.289Z,8.00
2023-01-03T09:18:58.961Z,8.10
2023-01-03T09:21:31.976Z,8.20
2023-01-03T09:24:04.026Z,8.30
2023-01-03T09:26:35.685Z,8.50
2023-01-03T09:29:07.372Z,8.60
2023-01-03T09:31:40.289Z,8.70
2023-01-03T09:34:12.184Z,8.80
2023-01-03T09:36:45.207Z,8.80
2023-01-03T09:39:16.903Z,8.90
2023-01-03T09:41:48.542Z,9.00
2023-01-03T09:44:20.166Z,9.00
2023-01-03T09:46:51.953Z,9.10
2023-01-03T09:49:23.642Z,9.20
2023-01-03T09:51:56.644Z,9.20
2023-01-03T09:54:31.129Z,9.30
2023-01-03T09:57:02.913Z,9.40
2023-01-03T09:59:36.328Z,9.50
2023-01-03T10:02:17.644Z,9.60
2023-01-03T10:05:15.057Z,9.60
2023-01-03T10:07:58.886Z,9.70
2023-01-03T10:10:32.488Z,9.70
2023-01-03T10:13:16.192Z,9.70
2023-01-03T10:15:56.126Z,9.70
2023-01-03T10:18:51.814Z,9.70
2023-01-03T10:21:26.135Z,9.70
2023-01-03T10:23:59.154Z,9.80
2023-01-03T10:26:33.007Z,9.80
2023-01-03T10:29:04.984Z,9.80
2023-01-03T10:31:43.233Z,9.80
2023-01-03T10:34:14.923Z,9.90
2023-01-03T10:36:46.598Z,10.00
2023-01-03T10:39:28.314Z,10.10
2023-01-03T10:42:00.171Z,10.20
2023-01-03T10:44:32.390Z,10.30
2023-01-03T10:47:09.267Z,10.30
2023-01-03T10:49:40.919Z,10.30
2023-01-03T10:52:14.433Z,10.30
2023-01-03T10:54:50.321Z,10.20
2023-01-03T10:57:43.510Z,10.30
2023-01-03T11:00:27.054Z,10.20
2023-01-03T11:03:12.651Z,10.30
2023-01-03T11:05:45.739Z,10.30
2023-01-03T11:08:20.060Z,10.30
2023-01-03T11:10:55.316Z,10.30
2023-01-03T11:13:33.364Z,10.30
2023-01-03T11:18:37.944Z,10.30
2023-01-03T11:21:12.535Z,10.40
2023-01-03T11:23:57.788Z,10.40
2023-01-03T11:26:41.235Z,10.40
2023-01-03T11:29:31.179Z,10.40
2023-01-03T11:32:10.681Z,10.50
2023-01-03T11:37:46.086Z,10.50
2023-01-03T11:40:23.322Z,10.60
2023-01-03T11:43:03.102Z,10.80
2023-01-03T11:45:48.752Z,10.90
2023-01-03T11:48:28.816Z,11.10
2023-01-03T11:51:04.705Z,11.20
2023-01-03T11:53:36.993Z,11.30
2023-01-03T11:56:14.617Z,11.50
2023-01-03T11:59:11.569Z,11.60
2023-01-03T12:02:08.793Z,11.60
2023-01-03T12:04:42.924Z,11.70
2023-01-03T12:07:47.071Z,11.70
2023-01-03T12:10:10.809Z,11.70
2023-01-03T12:13:00.538Z,11.80
2023-01-03T12:15:40.271Z,11.80
2023-01-03T12:18:21.533Z,11.70
2023-01-03T12:20:55.908Z,11.70
2023-01-03T12:23:35.048Z,11.70
2023-01-03T12:26:07.532Z,11.60
2023-01-03T12:28:39.772Z,11.60
2023-01-03T12:31:19.257Z,11.50
2023-01-03T12:33:56.162Z,11.40
2023-01-03T12:36:31.440Z,11.40
2023-01-03T12:39:07.476Z,11.40
2023-01-03T12:41:42.358Z,11.30
2023-01-03T12:44:16.492Z,11.20
2023-01-03T12:46:50.562Z,11.10
2023-01-03T12:49:24.018Z,11.00
2023-01-03T12:51:55.688Z,11.00
2023-01-03T12:54:34.543Z,11.00
2023-01-03T12:57:38.781Z,11.00
2023-01-03T13:00:25.307Z,11.00
2023-01-03T13:03:00.544Z,11.00
2023-01-03T13:05:35.745Z,11.10
2023-01-03T13:08:09.414Z,11.10
2023-01-03T13:10:42.691Z,11.10
2023-01-03T13:13:16.108Z,11.10
2023-01-03T13:15:47.811Z,11.00
2023-01-03T13:18:32.564Z,11.00
2023-01-03T13:21:46.542Z,11.00
2023-01-03T13:24:39.130Z,11.10
2023-01-03T13:27:35.406Z,11.20
2023-01-03T13:30:20.868Z,11.20
2023-01-03T13:32:53.650Z,11.20
2023-01-03T13:35:34.455Z,11.30
2023-01-03T13:38:27.391Z,11.20
2023-01-03T13:43:51.423Z,11.40
2023-01-03T13:46:24.341Z,11.40
2023-01-03T13:48:57.068Z,11.50
2023-01-03T13:51:46.382Z,11.50
2023-01-03T13:54:35.055Z,11.50
2023-01-03T13:57:28.717Z,11.50
2023-01-03T14:00:00.413Z,11.50
2023-01-03T14:02:55.179Z,11.60
2023-01-03T14:05:52.082Z,11.60
2023-01-03T14:08:35.345Z,11.50
2023-01-03T14:11:27.771Z,11.50
2023-01-03T14:14:00.764Z,11.50
2023-01-03T14:16:41.594Z,11.40
2023-01-03T14:19:17.202Z,11.40
2023-01-03T14:21:50.836Z,11.40
2023-01-03T14:24:25.572Z,11.30
2023-01-03T14:27:03.785Z,11.20
2023-01-03T14:29:35.991Z,11.20
2023-01-03T14:32:14.802Z,11.10
2023-01-03T14:34:46.461Z,11.00
2023-01-03T14:37:19.277Z,11.00
2023-01-03T14:39:56.029Z,10.90
2023-01-03T14:42:27.751Z,10.80
2023-01-03T14:45:00.166Z,10.70
2023-01-03T14:47:32.993Z,10.60
2023-01-03T14:50:05.688Z,10.50
2023-01-03T14:52:38.542Z,10.40
2023-01-03T14:55:15.003Z,10.30
2023-01-03T14:57:47.240Z,10.30
2023-01-03T15:00:19.960Z,10.20
2023-01-03T15:02:52.276Z,10.10
2023-01-03T15:05:26.829Z,10.10
2023-01-03T15:08:08.257Z,10.00
2023-01-03T15:10:43.874Z,10.00
2023-01-03T15:13:17.969Z,9.90
2023-01-03T15:15:53.533Z,9.90
2023-01-03T15:18:26.801Z,9.80
2023-01-03T15:20:58.841Z,9.80
2023-01-03T15:23:38.023Z,9.70
2023-01-03T15:26:21.009Z,9.60
2023-01-03T15:28:53.471Z,9.50
2023-01-03T15:31:30.256Z,9.50
2023-01-03T15:34:03.201Z,9.40
2023-01-03T15:36:34.830Z,9.30
2023-01-03T15:39:08.276Z,9.30
2023-01-03T15:41:41.284Z,9.20
2023-01-03T15:44:12.971Z,9.10
2023-01-03T15:46:44.910Z,9.10
2023-01-03T15:49:18.449Z,9.00
2023-01-03T15:51:50.171Z,9.00
2023-01-03T15:54:22.015Z,8.90
2023-01-03T15:56:59.772Z,8.90
2023-01-03T15:59:34.684Z,8.80
2023-01-03T16:02:13.603Z,8.80
2023-01-03T16:04:45.446Z,8.70
2023-01-03T16:07:17.235Z,8.60
2023-01-03T16:09:49.012Z,8.60
2023-01-03T16:12:22.605Z,8.60
2023-01-03T16:14:54.269Z,8.60
2023-01-03T16:17:26.664Z,8.50
2023-01-03T16:19:58.738Z,8.50
2023-01-03T16:22:35.380Z,8.50
2023-01-03T16:25:10.235Z,8.50
2023-01-03T16:27:43.246Z,8.40
2023-01-03T16:30:15.027Z,8.40
2023-01-03T16:32:46.697Z,8.40
2023-01-03T16:35:19.132Z,8.40
2023-01-03T16:37:50.775Z,8.50
2023-01-03T16:40:22.404Z,8.50
2023-01-03T16:42:55.384Z,8.40
2023-01-03T16:45:27.077Z,8.40
2023-01-03T16:47:58.735Z,8.40
2023-01-03T16:50:30.741Z,8.30
2023-01-03T16:53:02.435Z,8.30
2023-01-03T16:55:36.129Z,8.30
2023-01-03T16:58:10.627Z,8.30
2023-01-03T17:00:42.270Z,8.30
2023-01-03T17:03:14.105Z,8.30
2023-01-03T17:05:45.815Z,8.30
2023-01-03T17:08:20.770Z,8.30
2023-01-03T17:10:53.268Z,8.30
2023-01-03T17:13:28.484Z,8.20
2023-01-03T17:16:00.572Z,8.20
2023-01-03T17:18:33.620Z,8.20
2023-01-03T17:21:10.591Z,8.20
2023-01-03T17:23:42.392Z,8.20
2023-01-03T17:26:15.011Z,8.20
2023-01-03T17:28:49.219Z,8.10
2023-01-03T17:31:22.085Z,8.20
2023-01-03T17:33:54.076Z,8.10
2023-01-03T17:36:26.397Z,8.20
2023-01-03T17:38:59.092Z,8.20
2023-01-03T17:41:30.799Z,8.10
2023-01-03T17:44:03.804Z,8.10
2023-01-03T17:46:35.491Z,8.10
2023-01-03T17:49:07.416Z,8.00
2023-01-03T17:54:11.716Z,8.00
2023-01-03T17:56:43.906Z,8.00
2023-01-03T17:59:16.943Z,8.00
2023-01-03T18:01:48.707Z,8.00
2023-01-03T18:04:20.513Z,8.00
2023-01-03T18:06:53.506Z,8.00
2023-01-03T18:09:25.664Z,8.00
2023-01-03T18:11:57.325Z,8.00
2023-01-03T18:14:30.338Z,7.90
2023-01-03T18:19:34.021Z,8.00
2023-01-03T18:22:05.672Z,8.00
2023-01-03T18:24:37.333Z,8.00
2023-01-03T18:27:08.997Z,8.00
2023-01-03T18:29:42.021Z,8.00
2023-01-03T18:32:22.973Z,7.90
2023-01-03T18:34:54.845Z,7.90
2023-01-03T18:37:29.402Z,8.00
2023-01-03T18:40:01.106Z,8.00
2023-01-03T18:42:32.764Z,7.90
2023-01-03T18:45:09.364Z,7.90
2023-01-03T18:47:41.052Z,7.90
2023-01-03T18:50:16.955Z,7.90
2023-01-03T18:52:48.593Z,7.80
2023-01-03T18:55:22.661Z,7.80
2023-01-03T18:57:54.366Z,7.80
2023-01-03T19:00:27.376Z,7.70
2023-01-03T19:02:59.196Z,7.70
2023-01-03T19:05:31.021Z,7.70
2023-01-03T19:08:02.683Z,7.70
2023-01-03T19:10:34.336Z,7.70
2023-01-03T19:13:05.998Z,7.70
2023-01-03T19:15:39.015Z,7.70
2023-01-03T19:18:10.698Z,7.70
2023-01-03T19:20:42.370Z,7.70
2023-01-03T19:23:18.767Z,7.70
2023-01-03T19:25:50.409Z,7.70
2023-01-03T19:28:23.808Z,7.70
2023-01-03T19:30:56.877Z,7.70
2023-01-03T19:33:28.621Z,7.80
2023-01-03T19:36:00.462Z,7.80
2023-01-03T19:38:32.156Z,7.80
2023-01-03T19:41:03.898Z,7.90
2023-01-03T19:43:35.582Z,7.90
2023-01-03T19:46:12.713Z,7.90
2023-01-03T19:48:44.678Z,7.90
2023-01-03T19:51:16.379Z,8.00
2023-01-03T19:56:21.859Z,8.00
2023-01-03T19:58:57.817Z,8.00
2023-01-03T20:01:50.479Z,8.00
2023-01-03T20:04:25.722Z,8.00
2023-01-03T20:06:57.469Z,8.00
2023-01-03T20:09:29.166Z,7.90
2023-01-03T20:12:00.795Z,7.90
2023-01-03T20:14:32.464Z,7.90
2023-01-03T20:17:18.524Z,7.90
2023-01-03T20:19:50.212Z,7.90
2023-01-03T20:23:02.494Z,7.90
2023-01-03T20:25:21.589Z,7.90
2023-01-03T20:27:53.448Z,7.90
2023-01-03T20:30:25.794Z,7.90
2023-01-03T20:32:58.848Z,7.90
2023-01-03T20:36:09.704Z,7.90
2023-01-03T20:38:22.185Z,7.90
2023-01-03T20:40:53.990Z,7.90
2023-01-03T20:43:25.722Z,7.90
2023-01-03T20:45:57.873Z,8.00
2023-01-03T20:48:30.944Z,8.00
2023-01-03T20:51:02.595Z,8.00
2023-01-03T20:53:35.627Z,8.00
2023-01-03T20:56:11.284Z,7.90
2023-01-03T20:58:42.974Z,7.90
2023-01-03T21:01:14.861Z,7.20
2023-01-03T21:03:48.028Z,7.90
2023-01-03T21:06:20.699Z,7.90
2023-01-03T21:08:52.690Z,7.90
2023-01-03T21:11:25.203Z,7.90
2023-01-03T21:13:57.528Z,7.80
2023-01-03T21:16:31.399Z,7.80
2023-01-03T21:19:06.667Z,7.80
2023-01-03T21:21:38.480Z,7.80
2023-01-03T21:24:10.271Z,7.80
2023-01-03T21:26:41.978Z,7.80
2023-01-03T21:29:13.802Z,7.80
2023-01-03T21:31:45.497Z,7.80
2023-01-03T21:34:19.348Z,7.80
2023-01-03T21:36:51.019Z,7.80
2023-01-03T21:39:22.686Z,7.80
2023-01-03T21:41:54.333Z,7.80
2023-01-03T21:44:25.972Z,7.80
2023-01-03T21:49:31.073Z,7.90
2023-01-03T21:52:02.711Z,7.90
2023-01-03T21:54:34.367Z,7.90
2023-01-03T21:57:06.013Z,7.90
2023-01-03T21:59:37.815Z,8.00
2023-01-03T22:02:10.245Z,8.00
2023-01-03T22:04:43.426Z,8.10
2023-01-03T22:07:15.071Z,8.10
2023-01-03T22:09:46.776Z,8.20
2023-01-03T22:12:18.608Z,8.20
2023-01-03T22:14:50.305Z,8.20
2023-01-03T22:17:21.964Z,8.30
2023-01-03T22:19:54.976Z,8.30
2023-01-03T22:22:26.621Z,8.30
2023-01-03T22:24:58.305Z,8.30
2023-01-03T22:27:29.955Z,8.20
2023-01-03T22:30:01.682Z,8.20
2023-01-03T22:32:33.436Z,8.20
2023-01-03T22:35:07.277Z,8.20
2023-01-03T22:37:39.034Z,8.20
2023-01-03T22:40:12.046Z,8.20
2023-01-03T22:42:43.794Z,8.10
2023-01-03T22:45:15.572Z,8.10
2023-01-03T22:47:47.241Z,8.10
2023-01-03T22:50:20.408Z,8.10
2023-01-03T22:52:52.067Z,8.10
2023-01-03T22:55:28.337Z,8.20
2023-01-03T22:58:03.641Z,8.20
